Baie-Comeau, Canada
Current Conditions -  °F | °C
As of 6:00 PM on Thursday 27 Nov 2014 (Local Time) from CYBC Reporting Station
Clear Clear  
Wind Chill:   Ceiling: Unl
Heat Index: 19°   Visibility: 9mi
Dew Point:   Wind: 10mph
Humidity: 63%   Direction: 330°NNW
Pressure: 30.04"   Gusts: 17mph
Location:  49.22°N, 68.15°W
Report Text: CYBC 272300Z AUTO 33009G15KT 300V010 9SM CLR M07/M13 A3004 RMK SLP173
Loading
Personal Weather Stations






























Interactive Weather Map New forecast layout! Learn more

10-Day Weather Forecast

Advertisements
Track Severe Weather on mobile